Time;durP1;ratioP1;P1;durP2;ratioP2;P2;SDS_P1;SDS_P2;PMS_P1;PMS_P2;Temp;Humidity;BMP_temperature;BMP_pressure;BME280_temperature;BME280_humidity;BME280_pressure;Samples;Min_cycle;Max_cycle;Signal;HPM_P1;HPM_P2
2021/09/11 00:00:25;;;;;;;1.60;1.50;;;22.10;99.90;;;;;;5094150;28;20198;-76
2021/09/11 00:02:52;;;;;;;2.10;1.88;;;22.10;99.90;;;;;;5084790;28;20712;-76
2021/09/11 00:05:19;;;;;;;2.70;2.25;;;22.10;99.90;;;;;;5077826;28;20195;-77
2021/09/11 00:07:45;;;;;;;1.70;1.60;;;22.10;99.90;;;;;;5084503;28;20194;-77
2021/09/11 00:10:13;;;;;;;1.75;1.65;;;22.10;99.90;;;;;;5087818;28;20194;-77
2021/09/11 00:12:41;;;;;;;2.07;1.87;;;22.10;99.90;;;;;;5093091;28;20285;-76
2021/09/11 00:15:10;;;;;;;1.60;1.50;;;22.00;99.90;;;;;;5090706;28;20475;-77
2021/09/11 00:17:39;;;;;;;2.40;2.05;;;22.00;99.90;;;;;;5084806;28;20461;-77
2021/09/11 00:20:07;;;;;;;2.25;1.60;;;22.00;99.90;;;;;;5085251;28;20687;-76
2021/09/11 00:22:34;;;;;;;2.08;1.88;;;22.00;99.90;;;;;;5088666;28;20194;-76
2021/09/11 00:25:01;;;;;;;2.10;1.80;;;22.00;99.90;;;;;;5086426;28;20556;-77
2021/09/11 00:27:28;;;;;;;2.78;1.90;;;22.00;99.90;;;;;;5089939;28;20452;-76
2021/09/11 00:29:55;;;;;;;2.42;2.05;;;22.00;99.90;;;;;;5089394;28;20202;-76
2021/09/11 00:32:21;;;;;;;1.70;1.30;;;21.90;99.90;;;;;;5079220;28;20694;-76
2021/09/11 00:34:50;;;;;;;1.93;1.70;;;21.90;99.90;;;;;;5087950;28;20476;-76
2021/09/11 00:37:16;;;;;;;2.38;1.63;;;21.90;99.90;;;;;;5091690;28;20471;-77
2021/09/11 00:39:43;;;;;;;2.13;1.75;;;21.90;99.90;;;;;;5086664;28;20198;-76
2021/09/11 00:42:10;;;;;;;1.98;1.60;;;21.90;99.90;;;;;;5075851;28;20198;-76
2021/09/11 00:44:36;;;;;;;1.80;1.70;;;21.90;99.90;;;;;;5089874;28;20244;-76
2021/09/11 00:47:03;;;;;;;3.60;1.37;;;21.90;99.90;;;;;;5086267;28;20198;-76
2021/09/11 00:49:30;;;;;;;3.30;1.83;;;21.90;99.90;;;;;;5086202;28;20513;-76
2021/09/11 00:51:58;;;;;;;2.42;1.55;;;21.80;99.90;;;;;;5089957;28;20960;-76
2021/09/11 00:54:25;;;;;;;1.40;1.30;;;21.80;99.90;;;;;;5087555;28;20187;-77
2021/09/11 00:56:52;;;;;;;1.80;1.70;;;21.80;99.90;;;;;;5085259;28;20203;-76
2021/09/11 00:59:18;;;;;;;2.00;1.70;;;21.80;99.90;;;;;;5089802;28;20846;-77
2021/09/11 01:01:45;;;;;;;1.80;1.70;;;21.80;99.90;;;;;;5092718;28;20463;-76
2021/09/11 01:04:12;;;;;;;1.90;1.30;;;21.80;99.90;;;;;;5089967;28;20615;-76
2021/09/11 01:06:39;;;;;;;2.00;1.77;;;21.80;99.90;;;;;;5092018;28;20871;-76
2021/09/11 01:09:07;;;;;;;1.50;1.40;;;21.80;99.90;;;;;;5088520;28;20198;-76
2021/09/11 01:11:34;;;;;;;3.20;1.45;;;21.70;99.90;;;;;;5090988;28;20194;-75
2021/09/11 01:14:01;;;;;;;1.95;1.75;;;21.70;99.90;;;;;;5090988;28;20187;-75
2021/09/11 01:16:28;;;;;;;2.40;1.60;;;21.70;99.90;;;;;;5091955;28;20263;-75
2021/09/11 01:18:55;;;;;;;1.52;1.35;;;21.70;99.90;;;;;;5088233;28;20293;-75
2021/09/11 01:21:22;;;;;;;1.60;1.50;;;21.70;99.90;;;;;;5088070;28;20617;-75
2021/09/11 01:23:50;;;;;;;2.20;1.83;;;21.70;99.90;;;;;;5087563;28;20248;-75
2021/09/11 01:26:17;;;;;;;1.90;1.55;;;21.70;99.90;;;;;;5082721;28;20198;-76
2021/09/11 01:28:43;;;;;;;1.60;1.42;;;21.70;99.90;;;;;;5087060;28;20201;-75
2021/09/11 01:31:10;;;;;;;1.73;1.42;;;21.60;99.90;;;;;;5091563;28;20190;-75
2021/09/11 01:33:37;;;;;;;1.90;1.80;;;21.70;99.90;;;;;;5090255;28;20255;-75
2021/09/11 01:36:04;;;;;;;2.58;1.70;;;21.60;99.90;;;;;;5087238;28;20279;-75
2021/09/11 01:38:31;;;;;;;1.75;1.65;;;21.60;99.90;;;;;;5084403;28;20195;-75
2021/09/11 01:40:59;;;;;;;3.60;1.35;;;21.60;99.90;;;;;;5088351;28;20250;-75
2021/09/11 01:43:30;;;;;;;1.40;1.30;;;21.60;99.90;;;;;;5091159;28;20190;-76
2021/09/11 01:45:57;;;;;;;1.55;1.42;;;21.60;99.90;;;;;;5089946;28;20209;-75
2021/09/11 01:48:24;;;;;;;1.58;1.48;;;21.60;99.90;;;;;;5085083;28;20267;-77
2021/09/11 01:50:51;;;;;;;1.52;1.33;;;21.60;99.90;;;;;;5089277;28;20190;-75
2021/09/11 01:53:18;;;;;;;2.20;1.60;;;21.60;99.90;;;;;;5088664;28;20198;-76
2021/09/11 01:55:45;;;;;;;2.13;1.88;;;21.50;99.90;;;;;;5085233;28;20221;-76
2021/09/11 01:58:13;;;;;;;1.55;1.45;;;21.60;99.90;;;;;;5092212;28;20609;-76
2021/09/11 02:00:40;;;;;;;2.88;1.65;;;21.50;99.90;;;;;;5088709;28;20202;-75
2021/09/11 02:03:08;;;;;;;2.67;1.30;;;21.50;99.90;;;;;;5089391;28;20220;-76
2021/09/11 02:05:35;;;;;;;1.77;1.67;;;21.50;99.90;;;;;;5085127;28;20651;-75
2021/09/11 02:08:01;;;;;;;1.73;1.55;;;21.50;99.90;;;;;;5088320;28;20224;-75
2021/09/11 02:10:29;;;;;;;2.22;1.45;;;21.50;99.90;;;;;;5079795;28;20199;-76
2021/09/11 02:12:55;;;;;;;2.67;1.80;;;21.50;99.90;;;;;;5082185;28;20244;-76
2021/09/11 02:15:23;;;;;;;2.00;1.80;;;21.50;99.90;;;;;;5079502;28;20214;-75
2021/09/11 02:17:50;;;;;;;1.73;1.30;;;21.50;99.90;;;;;;5089665;28;20236;-76
2021/09/11 02:20:17;;;;;;;2.95;1.90;;;21.50;99.90;;;;;;5084264;28;20267;-75
2021/09/11 02:22:43;;;;;;;1.50;1.40;;;21.40;99.90;;;;;;5087942;28;20190;-75
2021/09/11 02:25:11;;;;;;;2.65;1.55;;;21.50;99.90;;;;;;5086766;28;20223;-76
2021/09/11 02:27:38;;;;;;;1.63;1.30;;;21.40;99.90;;;;;;5089533;28;20240;-77
2021/09/11 02:30:06;;;;;;;2.22;1.50;;;21.40;99.90;;;;;;5089248;28;20236;-77
2021/09/11 02:32:34;;;;;;;1.92;1.60;;;21.40;99.90;;;;;;5088499;28;20193;-76
2021/09/11 02:35:01;;;;;;;1.10;1.00;;;21.40;99.90;;;;;;5087761;28;20190;-77
2021/09/11 02:37:28;;;;;;;1.63;1.52;;;21.40;99.90;;;;;;5081792;28;20202;-77
2021/09/11 02:39:54;;;;;;;2.22;2.03;;;21.40;99.90;;;;;;5086477;28;20194;-77
2021/09/11 02:42:21;;;;;;;2.03;1.90;;;21.40;99.90;;;;;;5078297;28;20191;-76
2021/09/11 02:44:48;;;;;;;1.85;1.63;;;21.40;99.90;;;;;;5071953;28;20244;-77
2021/09/11 02:47:14;;;;;;;2.13;1.90;;;21.40;99.90;;;;;;5073961;28;20243;-76
2021/09/11 02:49:43;;;;;;;1.88;1.73;;;21.40;99.90;;;;;;5085402;28;20201;-76
2021/09/11 02:52:09;;;;;;;2.38;2.15;;;21.30;99.90;;;;;;5084724;28;20264;-76
2021/09/11 02:54:36;;;;;;;1.98;1.77;;;21.30;99.90;;;;;;5089567;28;20198;-76
2021/09/11 02:57:03;;;;;;;4.15;2.30;;;21.30;99.90;;;;;;5092793;28;20271;-75
2021/09/11 02:59:29;;;;;;;4.22;1.67;;;21.30;99.90;;;;;;5087491;28;20570;-76
2021/09/11 03:01:56;;;;;;;1.48;1.38;;;21.30;99.90;;;;;;5093283;28;20566;-76
2021/09/11 03:04:23;;;;;;;1.77;1.67;;;21.30;99.90;;;;;;5077327;28;20191;-76
2021/09/11 03:06:51;;;;;;;2.05;1.85;;;21.30;99.90;;;;;;5088954;28;20190;-76
2021/09/11 03:09:18;;;;;;;1.80;1.67;;;21.30;99.90;;;;;;5092708;28;20250;-76
2021/09/11 03:11:44;;;;;;;1.85;1.75;;;21.30;99.90;;;;;;5091983;28;20201;-76
2021/09/11 03:14:11;;;;;;;5.05;2.00;;;21.30;99.90;;;;;;5094579;28;20202;-76
2021/09/11 03:16:37;;;;;;;2.08;1.88;;;21.30;99.90;;;;;;5095484;28;20616;-76
2021/09/11 03:19:04;;;;;;;2.60;2.40;;;21.30;99.90;;;;;;5087768;28;20267;-76
2021/09/11 03:21:31;;;;;;;4.90;1.80;;;21.30;99.90;;;;;;5090547;28;20563;-77
2021/09/11 03:23:59;;;;;;;3.05;1.95;;;21.30;99.90;;;;;;5094012;28;20251;-76
2021/09/11 03:26:26;;;;;;;2.10;1.77;;;21.20;99.90;;;;;;5084368;28;20194;-76
2021/09/11 03:28:52;;;;;;;3.72;2.50;;;21.20;99.90;;;;;;5092825;28;20199;-76
2021/09/11 03:31:19;;;;;;;1.90;1.70;;;21.20;99.90;;;;;;5093425;28;20646;-76
2021/09/11 03:33:46;;;;;;;2.15;1.95;;;21.20;99.90;;;;;;5088053;28;20244;-76
2021/09/11 03:36:13;;;;;;;2.47;2.28;;;21.20;99.90;;;;;;5093195;28;20218;-75
2021/09/11 03:38:39;;;;;;;4.18;1.65;;;21.20;99.90;;;;;;5093167;28;20343;-76
2021/09/11 03:41:11;;;;;;;1.70;1.60;;;21.10;99.90;;;;;;5087291;28;20194;-76
2021/09/11 03:43:38;;;;;;;2.58;2.38;;;21.10;99.90;;;;;;5094111;28;20559;-77
2021/09/11 03:46:04;;;;;;;2.70;2.50;;;21.10;99.90;;;;;;5092208;28;20190;-76
2021/09/11 03:48:31;;;;;;;3.60;2.33;;;21.20;99.90;;;;;;5087292;28;20563;-77
2021/09/11 03:50:58;;;;;;;2.22;2.03;;;21.40;99.90;;;;;;5090434;28;20240;-77
2021/09/11 03:53:25;;;;;;;2.13;1.92;;;21.10;99.90;;;;;;5093510;28;20198;-77
2021/09/11 03:55:51;;;;;;;2.70;2.38;;;21.10;99.90;;;;;;5082674;28;20301;-76
2021/09/11 03:58:19;;;;;;;2.20;2.00;;;21.10;99.90;;;;;;5075038;28;20195;-76
2021/09/11 04:00:46;;;;;;;2.45;2.22;;;21.10;99.90;;;;;;5091915;28;20634;-77
2021/09/11 04:03:13;;;;;;;2.58;2.38;;;21.10;99.90;;;;;;5088866;28;20195;-77
2021/09/11 04:05:40;;;;;;;2.90;2.70;;;21.10;99.90;;;;;;5090349;28;20244;-76
2021/09/11 04:08:06;;;;;;;2.63;2.42;;;20.90;99.90;;;;;;5093064;28;20221;-76
2021/09/11 04:10:33;;;;;;;2.92;2.65;;;21.10;99.90;;;;;;5082885;28;20541;-75
2021/09/11 04:13:00;;;;;;;2.42;2.22;;;21.10;99.90;;;;;;5080312;28;20194;-76
2021/09/11 04:15:28;;;;;;;2.53;2.33;;;21.10;99.90;;;;;;5094407;28;20205;-76
2021/09/11 04:17:55;;;;;;;3.00;2.67;;;21.10;99.90;;;;;;5092391;28;20194;-76
2021/09/11 04:20:21;;;;;;;4.40;2.88;;;21.10;99.90;;;;;;5085177;28;20213;-77
2021/09/11 04:22:48;;;;;;;3.08;2.72;;;21.00;99.90;;;;;;5093070;28;20252;-76
2021/09/11 04:25:15;;;;;;;3.25;2.95;;;21.00;99.90;;;;;;5084144;28;20241;-76
2021/09/11 04:27:41;;;;;;;4.45;4.05;;;21.00;99.90;;;;;;5082734;28;20236;-76
2021/09/11 04:30:09;;;;;;;4.05;3.60;;;21.00;99.90;;;;;;5090468;28;20194;-76
2021/09/11 04:32:37;;;;;;;3.38;3.08;;;21.00;99.90;;;;;;5090291;28;20202;-76
2021/09/11 04:35:05;;;;;;;4.03;3.70;;;21.00;99.90;;;;;;5090905;28;20201;-76
2021/09/11 04:37:31;;;;;;;3.72;3.13;;;21.00;99.90;;;;;;5093862;28;20221;-76
2021/09/11 04:39:59;;;;;;;3.40;3.10;;;21.00;99.90;;;;;;5087042;28;20225;-76
2021/09/11 04:42:25;;;;;;;3.30;3.00;;;21.00;99.90;;;;;;5080311;28;20281;-76
2021/09/11 04:44:52;;;;;;;5.78;3.97;;;21.00;99.90;;;;;;5083665;28;20209;-76
2021/09/11 04:47:19;;;;;;;4.60;3.90;;;21.00;99.90;;;;;;5079774;28;20195;-77
2021/09/11 04:49:47;;;;;;;4.60;3.80;;;21.00;99.90;;;;;;5077660;28;20240;-76
2021/09/11 04:52:14;;;;;;;6.90;3.65;;;21.00;99.90;;;;;;5088158;28;20198;-76
2021/09/11 04:54:41;;;;;;;4.65;3.95;;;21.00;99.90;;;;;;5092632;28;20292;-76
2021/09/11 04:57:07;;;;;;;4.93;4.38;;;21.00;99.90;;;;;;5091659;28;20214;-76
2021/09/11 04:59:34;;;;;;;4.47;3.58;;;21.00;99.90;;;;;;5086144;28;20194;-76
2021/09/11 05:02:01;;;;;;;5.68;4.45;;;21.00;99.90;;;;;;5088411;28;20250;-76
2021/09/11 05:04:28;;;;;;;5.00;4.47;;;21.00;99.90;;;;;;5081200;28;20197;-76
2021/09/11 05:06:56;;;;;;;4.68;4.28;;;21.00;99.90;;;;;;5089680;28;20198;-75
2021/09/11 05:09:23;;;;;;;5.47;4.53;;;20.90;99.90;;;;;;5089740;28;20190;-76
2021/09/11 05:11:50;;;;;;;5.07;4.68;;;20.90;99.90;;;;;;5089871;28;20197;-75
2021/09/11 05:14:17;;;;;;;4.40;4.00;;;20.90;99.90;;;;;;5092077;28;20248;-75
2021/09/11 05:16:44;;;;;;;4.03;3.72;;;20.90;99.90;;;;;;5077704;28;20222;-75
2021/09/11 05:19:11;;;;;;;5.32;4.78;;;20.90;99.90;;;;;;5086909;28;20642;-75
2021/09/11 05:21:39;;;;;;;6.03;4.90;;;20.90;99.90;;;;;;5087880;28;20198;-76
2021/09/11 05:24:07;;;;;;;5.60;5.10;;;20.90;99.90;;;;;;5092667;28;20189;-76
2021/09/11 05:26:34;;;;;;;5.10;4.60;;;20.90;99.90;;;;;;5082458;28;20415;-75
2021/09/11 05:29:00;;;;;;;5.30;4.80;;;20.90;99.90;;;;;;5088334;28;20604;-75
2021/09/11 05:31:27;;;;;;;5.28;4.78;;;20.90;99.90;;;;;;5075296;28;20198;-75
2021/09/11 05:33:54;;;;;;;4.80;4.40;;;20.90;99.90;;;;;;5086530;28;20599;-76
2021/09/11 05:36:20;;;;;;;6.43;5.82;;;20.90;99.90;;;;;;5090479;28;20353;-76
2021/09/11 05:38:47;;;;;;;6.97;4.70;;;20.90;99.90;;;;;;5091622;28;20202;-75
2021/09/11 05:41:15;;;;;;;6.50;5.38;;;20.90;99.90;;;;;;5089349;28;20193;-75
2021/09/11 05:43:42;;;;;;;4.57;4.18;;;20.90;99.90;;;;;;5084840;28;20194;-76
2021/09/11 05:46:08;;;;;;;5.53;5.03;;;20.90;99.90;;;;;;5092600;28;20189;-76
2021/09/11 05:48:35;;;;;;;5.40;4.85;;;20.90;99.90;;;;;;5088951;28;20536;-76
2021/09/11 05:51:02;;;;;;;7.35;5.05;;;20.90;99.90;;;;;;5085576;28;20350;-75
2021/09/11 05:53:29;;;;;;;6.18;4.60;;;20.90;99.90;;;;;;5090917;28;20324;-75
2021/09/11 05:55:55;;;;;;;5.40;4.90;;;20.80;99.90;;;;;;5084242;28;20197;-75
2021/09/11 05:58:24;;;;;;;5.65;5.25;;;20.80;99.90;;;;;;5090197;28;20218;-75
2021/09/11 06:00:51;;;;;;;5.38;4.88;;;20.80;99.90;;;;;;5089804;28;20289;-75
2021/09/11 06:03:18;;;;;;;4.75;4.30;;;20.80;99.90;;;;;;5081761;28;20598;-74
2021/09/11 06:05:44;;;;;;;5.05;4.65;;;20.80;99.90;;;;;;5083641;28;20195;-75
2021/09/11 06:08:11;;;;;;;5.53;4.97;;;20.80;99.90;;;;;;5079281;28;20194;-74
2021/09/11 06:10:38;;;;;;;5.63;5.13;;;20.90;99.90;;;;;;5077741;28;20260;-74
2021/09/11 06:13:05;;;;;;;6.25;5.47;;;20.90;99.90;;;;;;5087209;28;20194;-74
2021/09/11 06:15:33;;;;;;;6.70;6.10;;;20.80;99.90;;;;;;5079124;28;20194;-75
2021/09/11 06:17:59;;;;;;;6.38;5.88;;;20.80;99.90;;;;;;5085057;28;20359;-75
2021/09/11 06:20:26;;;;;;;5.93;5.28;;;20.80;99.90;;;;;;5085897;28;20621;-74
2021/09/11 06:22:53;;;;;;;5.53;4.90;;;20.80;99.90;;;;;;5082318;28;20199;-75
2021/09/11 06:25:20;;;;;;;5.65;5.15;;;20.80;99.90;;;;;;5082297;28;20264;-75
2021/09/11 06:27:47;;;;;;;6.72;5.03;;;20.80;99.90;;;;;;5087427;28;20191;-76
2021/09/11 06:30:14;;;;;;;5.95;5.35;;;20.80;99.90;;;;;;5073288;28;20204;-75
2021/09/11 06:32:42;;;;;;;5.75;5.25;;;20.80;99.90;;;;;;5091966;28;20281;-75
2021/09/11 06:35:09;;;;;;;5.93;5.38;;;20.80;99.90;;;;;;5090384;28;20194;-75
2021/09/11 06:37:36;;;;;;;6.45;5.70;;;20.80;99.90;;;;;;5092796;28;20214;-75
2021/09/11 06:40:03;;;;;;;6.28;5.68;;;20.80;99.90;;;;;;5086556;28;20233;-75
2021/09/11 06:42:29;;;;;;;7.03;6.32;;;20.80;99.90;;;;;;5084022;28;20198;-75
2021/09/11 06:44:56;;;;;;;5.80;5.30;;;20.80;99.90;;;;;;5087203;28;20285;-75
2021/09/11 06:47:23;;;;;;;5.95;5.45;;;20.80;99.90;;;;;;5092394;28;20206;-77
2021/09/11 06:49:51;;;;;;;5.60;5.00;;;20.80;99.90;;;;;;5094347;28;20202;-81
2021/09/11 06:52:21;;;;;;;5.85;5.38;;;20.80;99.90;;;;;;5093080;28;20199;-81
2021/09/11 06:54:48;;;;;;;5.53;5.03;;;20.80;99.90;;;;;;5084116;28;20280;-78
2021/09/11 06:57:15;;;;;;;6.13;5.53;;;22.10;99.90;;;;;;5089397;28;20230;-80
2021/09/11 06:59:41;;;;;;;6.63;6.05;;;20.80;99.90;;;;;;5101609;28;20486;-80
2021/09/11 07:02:08;;;;;;;6.25;5.65;;;20.80;99.90;;;;;;5099435;28;20243;-78
2021/09/11 07:04:35;;;;;;;7.68;6.68;;;20.80;99.90;;;;;;5092648;28;20187;-79
2021/09/11 07:07:03;;;;;;;6.50;5.90;;;20.80;99.90;;;;;;5092715;28;20240;-79
2021/09/11 07:09:30;;;;;;;6.97;6.28;;;20.80;99.90;;;;;;5096111;28;20193;-79
2021/09/11 07:11:56;;;;;;;6.35;5.75;;;20.80;99.90;;;;;;5088616;28;20272;-79
2021/09/11 07:14:23;;;;;;;8.38;7.55;;;20.90;99.90;;;;;;5094523;28;20191;-79
2021/09/11 07:16:49;;;;;;;6.78;6.18;;;21.00;99.90;;;;;;5100599;28;20235;-78
2021/09/11 07:19:16;;;;;;;8.63;6.30;;;21.00;99.90;;;;;;5102773;28;20903;-79
2021/09/11 07:21:43;;;;;;;7.20;6.50;;;21.10;99.90;;;;;;5093437;28;20243;-80
2021/09/11 07:24:11;;;;;;;7.35;6.28;;;21.10;99.90;;;;;;5104880;28;20198;-79
2021/09/11 07:26:37;;;;;;;7.47;6.78;;;21.10;99.90;;;;;;5096446;28;20193;-75
2021/09/11 07:29:04;;;;;;;6.25;5.75;;;21.00;99.90;;;;;;5085602;28;20194;-75
2021/09/11 07:31:31;;;;;;;6.38;5.78;;;21.00;99.90;;;;;;5090089;28;20694;-75
2021/09/11 07:33:57;;;;;;;5.72;5.32;;;21.00;99.90;;;;;;5086824;28;20203;-75
2021/09/11 07:36:24;;;;;;;8.25;7.45;;;21.00;99.90;;;;;;5090524;28;20250;-75
2021/09/11 07:38:51;;;;;;;7.55;6.85;;;21.00;99.90;;;;;;5090026;28;20261;-75
2021/09/11 07:41:19;;;;;;;7.43;6.65;;;21.10;99.90;;;;;;5081047;28;20190;-75
2021/09/11 07:43:46;;;;;;;6.35;5.75;;;21.20;99.90;;;;;;5092724;28;20539;-75
2021/09/11 07:46:12;;;;;;;6.32;5.75;;;21.30;99.90;;;;;;5085137;28;20186;-75
2021/09/11 07:48:39;;;;;;;6.22;5.65;;;21.50;99.90;;;;;;5084377;28;20256;-75
2021/09/11 07:51:09;;;;;;;7.68;5.38;;;21.80;99.90;;;;;;5085881;28;20202;-74
2021/09/11 07:53:35;;;;;;;5.43;4.87;;;22.00;99.90;;;;;;5085089;28;20277;-75
2021/09/11 07:56:02;;;;;;;5.10;4.70;;;22.30;99.90;;;;;;5088689;28;20536;-74
2021/09/11 07:58:30;;;;;;;5.77;5.27;;;22.50;99.90;;;;;;5081704;28;22406;-75
2021/09/11 08:01:00;;;;;;;4.57;4.17;;;22.70;99.90;;;;;;5085394;28;20875;-75
2021/09/11 08:03:27;;;;;;;5.33;4.83;;;22.80;99.90;;;;;;5090647;28;20460;-75
2021/09/11 08:05:54;;;;;;;5.40;5.00;;;22.90;99.90;;;;;;5088568;28;20460;-75
2021/09/11 08:08:21;;;;;;;4.53;4.00;;;23.00;99.90;;;;;;5081410;28;20449;-76
2021/09/11 08:10:47;;;;;;;4.03;3.73;;;23.10;99.90;;;;;;5087998;28;20452;-75
2021/09/11 08:13:15;;;;;;;4.77;4.40;;;23.10;99.90;;;;;;5086320;28;20509;-76
2021/09/11 08:15:43;;;;;;;4.47;4.10;;;23.20;99.90;;;;;;5086081;28;20456;-75
2021/09/11 08:18:10;;;;;;;5.70;4.50;;;23.20;99.90;;;;;;5082151;28;20569;-75
2021/09/11 08:20:37;;;;;;;4.23;3.83;;;23.20;99.90;;;;;;5088038;28;20476;-75
2021/09/11 08:23:04;;;;;;;4.60;4.20;;;23.20;99.90;;;;;;5075602;28;20505;-75
2021/09/11 08:25:31;;;;;;;4.00;3.63;;;23.20;99.90;;;;;;5083868;28;20456;-75
2021/09/11 08:27:58;;;;;;;6.57;3.97;;;23.20;99.90;;;;;;5091521;28;20460;-75
2021/09/11 08:30:24;;;;;;;4.40;4.00;;;23.30;99.90;;;;;;5087867;28;20790;-74
2021/09/11 08:32:52;;;;;;;3.90;3.60;;;23.30;99.90;;;;;;5079711;28;20465;-74
2021/09/11 08:35:19;;;;;;;3.33;3.03;;;23.40;99.90;;;;;;5081942;28;20456;-75
2021/09/11 08:37:46;;;;;;;3.60;3.30;;;23.40;99.90;;;;;;5082441;28;20472;-74
2021/09/11 08:40:14;;;;;;;3.43;3.13;;;23.50;99.90;;;;;;5083496;28;20530;-72
2021/09/11 08:42:42;;;;;;;2.90;2.70;;;23.50;99.90;;;;;;5083828;28;20456;-72
2021/09/11 08:45:13;;;;;;;3.70;3.43;;;23.50;99.90;;;;;;5085070;28;20483;-72
2021/09/11 08:47:42;;;;;;;3.40;3.10;;;23.60;99.90;;;;;;5083641;28;20544;-72
2021/09/11 08:50:12;;;;;;;5.53;3.83;;;23.50;99.90;;;;;;5081917;28;20444;-72
2021/09/11 08:52:41;;;;;;;2.70;2.50;;;23.50;99.90;;;;;;5084238;28;20443;-72
2021/09/11 08:55:09;;;;;;;3.37;3.07;;;23.30;99.90;;;;;;5081268;28;20567;-71
2021/09/11 08:57:35;;;;;;;3.27;3.07;;;23.30;99.90;;;;;;5078893;28;20896;-72
2021/09/11 09:00:06;;;;;;;2.87;2.67;;;23.20;99.90;;;;;;5079199;28;20447;-72
2021/09/11 09:02:32;;;;;;;4.43;3.27;;;23.00;99.90;;;;;;5078112;28;20442;-72
2021/09/11 09:05:01;;;;;;;3.20;2.90;;;22.90;99.90;;;;;;5076230;28;20461;-72
2021/09/11 09:07:38;;;;;;;3.10;2.87;;;22.80;99.90;;;;;;5091093;28;20456;-72
2021/09/11 09:10:07;;;;;;;4.20;3.00;;;22.70;99.90;;;;;;5079722;28;20535;-73
2021/09/11 09:12:36;;;;;;;3.33;2.57;;;22.70;99.90;;;;;;5081189;28;20468;-71
2021/09/11 09:15:06;;;;;;;6.83;2.93;;;22.80;99.90;;;;;;5087766;28;20959;-72
2021/09/11 09:17:47;;;;;;;3.00;2.70;;;22.90;99.90;;;;;;5084099;28;20471;-73
2021/09/11 09:20:22;;;;;;;2.50;2.30;;;23.00;99.90;;;;;;5080414;28;20597;-72
2021/09/11 09:23:12;;;;;;;2.50;2.30;;;23.10;99.90;;;;;;5079492;28;20468;-74
2021/09/11 09:25:39;;;;;;;2.40;2.00;;;23.10;99.90;;;;;;5086694;28;20880;-72
2021/09/11 09:28:09;;;;;;;3.60;2.40;;;23.10;99.90;;;;;;5090989;28;20460;-71
2021/09/11 09:30:38;;;;;;;1.93;1.83;;;23.00;99.90;;;;;;5086286;28;20448;-71
2021/09/11 09:33:05;;;;;;;4.17;2.70;;;23.00;99.90;;;;;;5084608;28;20509;-71
2021/09/11 09:35:32;;;;;;;2.73;2.50;;;22.90;99.90;;;;;;5090232;28;21131;-72
2021/09/11 09:38:02;;;;;;;2.47;2.10;;;22.90;99.90;;;;;;5091509;28;20472;-71
2021/09/11 09:40:37;;;;;;;2.40;2.00;;;22.80;99.90;;;;;;5088369;28;20513;-72
2021/09/11 09:43:05;;;;;;;3.03;2.73;;;22.90;99.90;;;;;;5088640;28;20463;-71
2021/09/11 09:45:32;;;;;;;2.70;2.50;;;23.00;99.90;;;;;;5088206;28;20453;-72
2021/09/11 09:48:01;;;;;;;3.70;2.00;;;23.10;99.90;;;;;;5091070;28;20466;-71
2021/09/11 09:50:31;;;;;;;3.13;2.30;;;23.20;99.90;;;;;;5081030;28;20464;-71
2021/09/11 09:52:59;;;;;;;2.50;2.07;;;23.30;99.90;;;;;;5083507;28;20551;-71
2021/09/11 09:55:27;;;;;;;2.43;2.23;;;23.30;99.90;;;;;;5078845;28;20456;-71
2021/09/11 09:57:54;;;;;;;4.03;2.33;;;23.40;99.90;;;;;;5085125;28;20475;-71
2021/09/11 10:00:21;;;;;;;2.97;2.70;;;23.40;99.90;;;;;;5091147;28;20513;-72
2021/09/11 10:02:47;;;;;;;3.00;2.80;;;23.40;99.90;;;;;;5091422;28;20456;-72
2021/09/11 10:05:15;;;;;;;2.80;2.60;;;23.30;99.90;;;;;;5090875;28;20444;-71
2021/09/11 10:07:52;;;;;;;2.40;2.20;;;23.20;99.90;;;;;;5092153;28;20911;-72
2021/09/11 10:10:19;;;;;;;3.67;2.90;;;23.10;99.90;;;;;;5088375;28;20467;-71
2021/09/11 10:12:48;;;;;;;2.73;2.53;;;23.10;99.90;;;;;;5090523;28;20463;-71
2021/09/11 10:15:23;;;;;;;2.50;2.20;;;23.10;99.90;;;;;;5088428;28;20456;-71
2021/09/11 10:17:50;;;;;;;2.90;2.60;;;23.10;99.90;;;;;;5090879;28;20574;-71
2021/09/11 10:20:17;;;;;;;2.87;2.13;;;23.10;99.90;;;;;;5084571;28;20476;-71
2021/09/11 10:23:04;;;;;;;2.70;2.50;;;23.10;99.90;;;;;;5087038;28;20505;-72
2021/09/11 10:25:42;;;;;;;3.27;3.00;;;23.00;99.90;;;;;;5086876;28;20456;-71
2021/09/11 10:28:14;;;;;;;3.30;3.10;;;23.00;99.90;;;;;;5091932;28;20440;-71
2021/09/11 10:31:06;;;;;;;2.40;2.20;;;22.90;99.90;;;;;;5091680;28;20438;-71
2021/09/11 10:33:39;;;;;;;3.30;3.00;;;22.80;99.90;;;;;;5081574;28;20452;-71
2021/09/11 10:36:11;;;;;;;3.07;2.70;;;22.80;99.90;;;;;;5089228;28;20452;-71
2021/09/11 10:38:39;;;;;;;2.53;2.33;;;22.80;99.90;;;;;;5090036;28;20533;-71
2021/09/11 10:41:11;;;;;;;3.47;3.17;;;22.70;99.90;;;;;;5076420;28;20457;-71
2021/09/11 10:43:39;;;;;;;3.63;3.37;;;22.70;99.90;;;;;;5071829;28;20807;-72
2021/09/11 10:46:08;;;;;;;2.60;2.30;;;22.70;99.90;;;;;;5076766;28;20952;-71
2021/09/11 10:48:47;;;;;;;3.53;3.23;;;22.70;99.90;;;;;;5089835;28;20460;-71
2021/09/11 10:51:21;;;;;;;2.80;2.60;;;22.70;99.90;;;;;;5089073;28;20488;-71
2021/09/11 10:54:17;;;;;;;2.80;2.43;;;22.70;99.90;;;;;;5091691;28;20436;-71
2021/09/11 10:56:51;;;;;;;3.17;2.80;;;22.70;99.90;;;;;;5059340;28;20457;-71
2021/09/11 10:59:36;;;;;;;3.00;2.80;;;22.70;99.90;;;;;;5085787;28;20480;-71
2021/09/11 11:02:35;;;;;;;2.50;2.30;;;22.70;99.90;;;;;;5071541;28;20467;-71
2021/09/11 11:05:09;;;;;;;3.00;2.80;;;22.70;99.90;;;;;;5071481;28;20483;-71
2021/09/11 11:07:42;;;;;;;3.13;2.70;;;22.70;99.90;;;;;;5083015;28;20460;-71
2021/09/11 11:10:11;;;;;;;2.77;2.53;;;22.70;99.90;;;;;;5084203;28;20874;-71
2021/09/11 11:12:40;;;;;;;2.80;2.60;;;22.70;99.90;;;;;;5080374;28;20456;-71
2021/09/11 11:15:10;;;;;;;2.70;2.50;;;22.70;99.90;;;;;;5091690;28;20858;-71
2021/09/11 11:17:38;;;;;;;3.50;3.30;;;22.70;99.90;;;;;;5093530;28;20440;-72
2021/09/11 11:20:07;;;;;;;2.70;2.50;;;22.70;99.90;;;;;;5074740;28;20514;-71
2021/09/11 11:22:38;;;;;;;3.23;2.93;;;22.70;99.90;;;;;;5076270;28;20986;-71
2021/09/11 11:25:07;;;;;;;4.40;2.70;;;22.70;99.90;;;;;;5086336;28;20795;-71
2021/09/11 11:27:34;;;;;;;4.40;2.73;;;22.70;99.90;;;;;;5074809;28;20873;-71
2021/09/11 11:30:02;;;;;;;2.90;2.70;;;22.70;99.90;;;;;;5074664;28;20452;-71
2021/09/11 11:32:35;;;;;;;4.30;3.07;;;22.80;99.90;;;;;;5074676;28;20494;-71
2021/09/11 11:35:02;;;;;;;3.80;3.50;;;22.80;99.90;;;;;;5074471;28;20489;-72
2021/09/11 11:37:31;;;;;;;2.93;2.60;;;22.80;99.90;;;;;;5091671;28;20509;-71
2021/09/11 11:39:59;;;;;;;3.07;2.87;;;22.80;99.90;;;;;;5089011;28;20472;-72
2021/09/11 11:42:27;;;;;;;3.73;3.30;;;22.80;99.90;;;;;;5092898;28;20456;-71
2021/09/11 11:44:55;;;;;;;4.27;3.33;;;22.80;99.90;;;;;;5094179;28;20460;-71
2021/09/11 11:47:45;;;;;;;3.10;2.90;;;22.80;99.90;;;;;;5094777;28;20436;-71
2021/09/11 11:50:17;;;;;;;3.80;3.50;;;22.80;99.90;;;;;;5083141;28;20456;-71
2021/09/11 11:52:46;;;;;;;3.60;3.40;;;22.80;99.90;;;;;;5086709;28;20456;-71
2021/09/11 11:55:13;;;;;;;3.57;3.37;;;22.80;99.90;;;;;;5090817;28;20452;-71
2021/09/11 11:57:40;;;;;;;3.80;3.53;;;22.90;99.90;;;;;;5094678;28;20440;-72
2021/09/11 12:00:09;;;;;;;4.20;3.60;;;22.90;99.90;;;;;;5094188;28;20483;-72
2021/09/11 12:02:38;;;;;;;3.50;3.30;;;22.90;99.90;;;;;;5093369;28;20452;-71
2021/09/11 12:05:15;;;;;;;3.50;3.20;;;22.90;99.90;;;;;;5087580;28;20547;-71
2021/09/11 12:07:42;;;;;;;3.70;3.40;;;22.90;99.90;;;;;;5082361;28;20447;-71
2021/09/11 12:10:16;;;;;;;3.50;3.13;;;23.00;99.90;;;;;;5086337;28;21025;-71
2021/09/11 12:12:48;;;;;;;4.40;4.00;;;23.00;99.90;;;;;;5075277;28;20444;-72
2021/09/11 12:15:17;;;;;;;3.20;2.93;;;23.00;99.90;;;;;;5089085;28;20456;-71
2021/09/11 12:18:01;;;;;;;3.37;3.13;;;23.00;99.90;;;;;;5083560;28;20856;-71
2021/09/11 12:20:31;;;;;;;3.90;3.50;;;23.00;99.90;;;;;;5073614;28;20453;-71
2021/09/11 12:23:06;;;;;;;4.10;3.80;;;23.00;99.90;;;;;;5093201;28;20451;-71
2021/09/11 12:25:57;;;;;;;3.70;3.40;;;23.00;99.90;;;;;;5082962;28;20456;-71
2021/09/11 12:28:32;;;;;;;3.60;3.30;;;23.00;99.90;;;;;;5067195;28;20464;-71
2021/09/11 12:30:59;;;;;;;3.37;3.17;;;23.00;99.90;;;;;;5091261;28;20528;-71
2021/09/11 12:33:26;;;;;;;4.20;3.80;;;23.00;99.90;;;;;;5093793;28;20462;-72
2021/09/11 12:35:54;;;;;;;4.07;3.77;;;23.00;99.90;;;;;;5085872;28;20798;-71
2021/09/11 12:38:21;;;;;;;3.70;3.40;;;23.10;99.90;;;;;;5093534;28;20494;-71
2021/09/11 12:40:48;;;;;;;3.43;3.13;;;23.10;99.90;;;;;;5085548;28;20486;-71
2021/09/11 12:43:14;;;;;;;4.07;3.67;;;23.10;99.90;;;;;;5092054;28;20513;-71
2021/09/11 12:45:42;;;;;;;3.10;2.90;;;23.10;99.90;;;;;;5091994;28;20517;-71
2021/09/11 12:48:08;;;;;;;3.63;3.33;;;23.10;99.90;;;;;;5078439;28;20513;-72
2021/09/11 12:50:35;;;;;;;2.93;2.70;;;23.10;99.90;;;;;;5090969;28;20877;-72
2021/09/11 12:53:03;;;;;;;3.60;3.30;;;23.20;99.90;;;;;;5091882;28;20460;-71